sensor_id;sensor_type;location;lat;lon;timestamp;P1;durP1;ratioP1;P2;durP2;ratioP2
36597;SDS011;22607;49.550;11.940;2022-09-09T00:04:49;3.38;;;1.02;;
36597;SDS011;22607;49.550;11.940;2022-09-09T00:07:36;4.00;;;1.00;;
36597;SDS011;22607;49.550;11.940;2022-09-09T00:10:21;4.28;;;1.08;;
36597;SDS011;22607;49.550;11.940;2022-09-09T00:28:18;4.10;;;1.02;;
36597;SDS011;22607;49.550;11.940;2022-09-09T00:30:47;5.95;;;1.50;;
36597;SDS011;22607;49.550;11.940;2022-09-09T00:33:16;3.55;;;0.90;;
36597;SDS011;22607;49.550;11.940;2022-09-09T00:35:48;4.38;;;1.10;;
36597;SDS011;22607;49.550;11.940;2022-09-09T00:38:24;3.33;;;1.05;;
36597;SDS011;22607;49.550;11.940;2022-09-09T00:41:04;4.68;;;1.38;;
36597;SDS011;22607;49.550;11.940;2022-09-09T00:43:38;5.60;;;1.20;;
36597;SDS011;22607;49.550;11.940;2022-09-09T00:49:15;3.85;;;0.90;;
36597;SDS011;22607;49.550;11.940;2022-09-09T00:57:38;7.75;;;1.48;;
36597;SDS011;22607;49.550;11.940;2022-09-09T01:05:45;3.70;;;1.13;;
36597;SDS011;22607;49.550;11.940;2022-09-09T01:11:26;4.13;;;1.20;;
36597;SDS011;22607;49.550;11.940;2022-09-09T01:14:00;2.72;;;1.30;;
36597;SDS011;22607;49.550;11.940;2022-09-09T01:16:50;5.50;;;1.40;;
36597;SDS011;22607;49.550;11.940;2022-09-09T01:19:26;6.32;;;1.35;;
36597;SDS011;22607;49.550;11.940;2022-09-09T01:22:12;5.45;;;1.23;;
36597;SDS011;22607;49.550;11.940;2022-09-09T01:24:43;3.40;;;1.05;;
36597;SDS011;22607;49.550;11.940;2022-09-09T01:27:22;6.97;;;1.40;;
36597;SDS011;22607;49.550;11.940;2022-09-09T01:29:51;5.07;;;1.20;;
36597;SDS011;22607;49.550;11.940;2022-09-09T01:37:59;7.28;;;1.70;;
36597;SDS011;22607;49.550;11.940;2022-09-09T01:40:26;4.53;;;1.10;;
36597;SDS011;22607;49.550;11.940;2022-09-09T01:42:53;4.43;;;1.20;;
36597;SDS011;22607;49.550;11.940;2022-09-09T01:45:20;5.25;;;1.17;;
36597;SDS011;22607;49.550;11.940;2022-09-09T01:47:48;5.35;;;1.33;;
36597;SDS011;22607;49.550;11.940;2022-09-09T01:50:16;4.38;;;1.27;;
36597;SDS011;22607;49.550;11.940;2022-09-09T01:52:44;4.18;;;1.15;;
36597;SDS011;22607;49.550;11.940;2022-09-09T01:55:14;6.13;;;1.30;;
36597;SDS011;22607;49.550;11.940;2022-09-09T02:00:12;4.60;;;1.23;;
36597;SDS011;22607;49.550;11.940;2022-09-09T02:02:56;6.72;;;1.80;;
36597;SDS011;22607;49.550;11.940;2022-09-09T02:05:37;4.90;;;1.30;;
36597;SDS011;22607;49.550;11.940;2022-09-09T02:08:23;4.45;;;1.38;;
36597;SDS011;22607;49.550;11.940;2022-09-09T02:13:21;5.80;;;1.55;;
36597;SDS011;22607;49.550;11.940;2022-09-09T02:16:00;5.25;;;1.25;;
36597;SDS011;22607;49.550;11.940;2022-09-09T02:18:38;6.85;;;1.58;;
36597;SDS011;22607;49.550;11.940;2022-09-09T02:21:11;7.40;;;1.85;;
36597;SDS011;22607;49.550;11.940;2022-09-09T02:23:40;5.60;;;1.38;;
36597;SDS011;22607;49.550;11.940;2022-09-09T02:26:09;6.57;;;1.30;;
36597;SDS011;22607;49.550;11.940;2022-09-09T02:28:39;7.38;;;1.40;;
36597;SDS011;22607;49.550;11.940;2022-09-09T02:31:08;3.72;;;1.20;;
36597;SDS011;22607;49.550;11.940;2022-09-09T02:33:37;5.05;;;1.05;;
36597;SDS011;22607;49.550;11.940;2022-09-09T02:36:08;6.60;;;1.50;;
36597;SDS011;22607;49.550;11.940;2022-09-09T02:38:41;5.82;;;1.38;;
36597;SDS011;22607;49.550;11.940;2022-09-09T02:41:12;5.97;;;1.30;;
36597;SDS011;22607;49.550;11.940;2022-09-09T02:43:39;4.15;;;1.30;;
36597;SDS011;22607;49.550;11.940;2022-09-09T02:46:20;3.17;;;1.25;;
36597;SDS011;22607;49.550;11.940;2022-09-09T02:57:08;5.50;;;1.30;;
36597;SDS011;22607;49.550;11.940;2022-09-09T02:59:43;3.80;;;1.20;;
36597;SDS011;22607;49.550;11.940;2022-09-09T03:02:10;5.13;;;1.42;;
36597;SDS011;22607;49.550;11.940;2022-09-09T03:04:39;5.97;;;1.50;;
36597;SDS011;22607;49.550;11.940;2022-09-09T03:07:06;5.03;;;1.65;;
36597;SDS011;22607;49.550;11.940;2022-09-09T03:09:33;6.25;;;1.70;;
36597;SDS011;22607;49.550;11.940;2022-09-09T03:12:00;6.25;;;1.88;;
36597;SDS011;22607;49.550;11.940;2022-09-09T03:14:27;4.80;;;1.50;;
36597;SDS011;22607;49.550;11.940;2022-09-09T03:16:53;4.70;;;1.40;;
36597;SDS011;22607;49.550;11.940;2022-09-09T03:19:20;3.20;;;1.10;;
36597;SDS011;22607;49.550;11.940;2022-09-09T03:21:47;4.20;;;1.40;;
36597;SDS011;22607;49.550;11.940;2022-09-09T03:24:14;5.05;;;1.63;;
36597;SDS011;22607;49.550;11.940;2022-09-09T03:26:41;4.53;;;1.20;;
36597;SDS011;22607;49.550;11.940;2022-09-09T03:29:11;5.47;;;1.50;;
36597;SDS011;22607;49.550;11.940;2022-09-09T03:31:39;7.20;;;2.17;;
36597;SDS011;22607;49.550;11.940;2022-09-09T03:34:06;5.70;;;1.33;;
36597;SDS011;22607;49.550;11.940;2022-09-09T03:36:33;4.50;;;1.40;;
36597;SDS011;22607;49.550;11.940;2022-09-09T03:39:00;4.32;;;1.50;;
36597;SDS011;22607;49.550;11.940;2022-09-09T03:41:27;5.55;;;1.55;;
36597;SDS011;22607;49.550;11.940;2022-09-09T03:43:53;7.65;;;2.30;;
36597;SDS011;22607;49.550;11.940;2022-09-09T03:46:21;7.65;;;1.60;;
36597;SDS011;22607;49.550;11.940;2022-09-09T03:48:50;4.28;;;1.40;;
36597;SDS011;22607;49.550;11.940;2022-09-09T03:51:18;6.32;;;1.60;;
36597;SDS011;22607;49.550;11.940;2022-09-09T03:53:45;6.70;;;1.90;;
36597;SDS011;22607;49.550;11.940;2022-09-09T03:56:12;6.20;;;1.65;;
36597;SDS011;22607;49.550;11.940;2022-09-09T03:58:39;5.03;;;1.52;;
36597;SDS011;22607;49.550;11.940;2022-09-09T04:01:10;6.10;;;1.58;;
36597;SDS011;22607;49.550;11.940;2022-09-09T04:03:44;6.93;;;1.92;;
36597;SDS011;22607;49.550;11.940;2022-09-09T04:06:11;5.43;;;1.60;;
36597;SDS011;22607;49.550;11.940;2022-09-09T04:08:41;5.50;;;1.83;;
36597;SDS011;22607;49.550;11.940;2022-09-09T04:11:08;4.50;;;1.55;;
36597;SDS011;22607;49.550;11.940;2022-09-09T04:13:36;8.38;;;2.53;;
36597;SDS011;22607;49.550;11.940;2022-09-09T04:16:05;7.10;;;2.30;;
36597;SDS011;22607;49.550;11.940;2022-09-09T04:18:33;9.10;;;2.92;;
36597;SDS011;22607;49.550;11.940;2022-09-09T04:21:00;8.73;;;2.83;;
36597;SDS011;22607;49.550;11.940;2022-09-09T04:23:27;12.13;;;3.97;;
36597;SDS011;22607;49.550;11.940;2022-09-09T04:25:56;8.05;;;3.58;;
36597;SDS011;22607;49.550;11.940;2022-09-09T04:28:25;8.85;;;3.15;;
36597;SDS011;22607;49.550;11.940;2022-09-09T04:30:53;9.18;;;3.40;;
36597;SDS011;22607;49.550;11.940;2022-09-09T04:33:20;9.18;;;3.70;;
36597;SDS011;22607;49.550;11.940;2022-09-09T04:35:48;10.00;;;3.80;;
36597;SDS011;22607;49.550;11.940;2022-09-09T04:38:16;9.68;;;3.95;;
36597;SDS011;22607;49.550;11.940;2022-09-09T04:40:47;9.35;;;3.70;;
36597;SDS011;22607;49.550;11.940;2022-09-09T04:43:14;10.75;;;4.82;;
36597;SDS011;22607;49.550;11.940;2022-09-09T04:45:41;8.90;;;3.83;;
36597;SDS011;22607;49.550;11.940;2022-09-09T04:48:08;10.55;;;4.53;;
36597;SDS011;22607;49.550;11.940;2022-09-09T04:50:38;9.70;;;4.25;;
36597;SDS011;22607;49.550;11.940;2022-09-09T04:53:06;9.63;;;4.32;;
36597;SDS011;22607;49.550;11.940;2022-09-09T04:55:34;9.63;;;3.42;;
36597;SDS011;22607;49.550;11.940;2022-09-09T04:58:04;7.97;;;3.38;;
36597;SDS011;22607;49.550;11.940;2022-09-09T05:00:32;10.27;;;4.75;;
36597;SDS011;22607;49.550;11.940;2022-09-09T05:03:02;11.18;;;5.03;;
36597;SDS011;22607;49.550;11.940;2022-09-09T05:05:32;9.57;;;4.20;;
36597;SDS011;22607;49.550;11.940;2022-09-09T05:08:03;9.23;;;4.35;;
36597;SDS011;22607;49.550;11.940;2022-09-09T05:10:31;12.18;;;6.30;;
36597;SDS011;22607;49.550;11.940;2022-09-09T05:12:58;11.13;;;4.30;;
36597;SDS011;22607;49.550;11.940;2022-09-09T05:15:25;10.68;;;3.70;;
36597;SDS011;22607;49.550;11.940;2022-09-09T05:17:51;11.85;;;4.93;;
36597;SDS011;22607;49.550;11.940;2022-09-09T05:20:21;12.18;;;5.93;;
36597;SDS011;22607;49.550;11.940;2022-09-09T05:22:47;18.02;;;8.30;;
36597;SDS011;22607;49.550;11.940;2022-09-09T05:25:14;15.25;;;9.13;;
36597;SDS011;22607;49.550;11.940;2022-09-09T05:27:41;15.90;;;9.10;;
36597;SDS011;22607;49.550;11.940;2022-09-09T05:30:07;17.35;;;11.05;;
36597;SDS011;22607;49.550;11.940;2022-09-09T05:32:34;18.73;;;12.23;;
36597;SDS011;22607;49.550;11.940;2022-09-09T05:35:03;21.75;;;12.73;;
36597;SDS011;22607;49.550;11.940;2022-09-09T05:37:30;24.30;;;13.95;;
36597;SDS011;22607;49.550;11.940;2022-09-09T05:39:57;20.50;;;12.93;;
36597;SDS011;22607;49.550;11.940;2022-09-09T05:42:24;19.98;;;12.00;;
36597;SDS011;22607;49.550;11.940;2022-09-09T05:44:51;21.92;;;13.82;;
36597;SDS011;22607;49.550;11.940;2022-09-09T05:47:20;20.35;;;12.73;;
36597;SDS011;22607;49.550;11.940;2022-09-09T05:49:47;20.40;;;12.45;;
36597;SDS011;22607;49.550;11.940;2022-09-09T05:52:13;26.60;;;16.85;;
36597;SDS011;22607;49.550;11.940;2022-09-09T05:54:40;19.85;;;11.90;;
36597;SDS011;22607;49.550;11.940;2022-09-09T05:57:08;24.75;;;16.58;;
36597;SDS011;22607;49.550;11.940;2022-09-09T05:59:34;26.48;;;16.83;;
36597;SDS011;22607;49.550;11.940;2022-09-09T06:02:01;33.97;;;20.10;;
36597;SDS011;22607;49.550;11.940;2022-09-09T06:04:28;27.98;;;17.65;;
36597;SDS011;22607;49.550;11.940;2022-09-09T06:06:54;24.02;;;15.98;;
36597;SDS011;22607;49.550;11.940;2022-09-09T06:09:21;31.70;;;19.45;;
36597;SDS011;22607;49.550;11.940;2022-09-09T06:11:47;32.53;;;19.65;;
36597;SDS011;22607;49.550;11.940;2022-09-09T06:14:14;24.63;;;15.23;;
36597;SDS011;22607;49.550;11.940;2022-09-09T06:16:41;24.58;;;15.10;;
36597;SDS011;22607;49.550;11.940;2022-09-09T06:19:10;20.60;;;13.88;;
36597;SDS011;22607;49.550;11.940;2022-09-09T06:21:39;18.15;;;12.82;;
36597;SDS011;22607;49.550;11.940;2022-09-09T06:24:06;20.30;;;13.32;;
36597;SDS011;22607;49.550;11.940;2022-09-09T06:26:37;24.00;;;15.63;;
36597;SDS011;22607;49.550;11.940;2022-09-09T06:29:06;23.05;;;15.95;;
36597;SDS011;22607;49.550;11.940;2022-09-09T06:31:34;21.92;;;13.35;;
36597;SDS011;22607;49.550;11.940;2022-09-09T06:34:06;22.60;;;15.82;;
36597;SDS011;22607;49.550;11.940;2022-09-09T06:36:35;24.88;;;16.55;;
36597;SDS011;22607;49.550;11.940;2022-09-09T06:39:03;18.27;;;12.60;;
36597;SDS011;22607;49.550;11.940;2022-09-09T06:41:36;22.25;;;14.68;;
36597;SDS011;22607;49.550;11.940;2022-09-09T06:44:04;21.30;;;15.27;;
36597;SDS011;22607;49.550;11.940;2022-09-09T06:46:31;22.00;;;15.20;;
36597;SDS011;22607;49.550;11.940;2022-09-09T06:48:59;20.15;;;13.57;;
36597;SDS011;22607;49.550;11.940;2022-09-09T06:51:30;20.00;;;13.90;;
36597;SDS011;22607;49.550;11.940;2022-09-09T06:53:59;19.80;;;14.88;;
36597;SDS011;22607;49.550;11.940;2022-09-09T06:56:29;19.45;;;13.00;;
36597;SDS011;22607;49.550;11.940;2022-09-09T06:59:01;19.80;;;13.10;;
36597;SDS011;22607;49.550;11.940;2022-09-09T07:01:36;19.23;;;14.07;;
36597;SDS011;22607;49.550;11.940;2022-09-09T07:04:04;15.52;;;10.82;;
36597;SDS011;22607;49.550;11.940;2022-09-09T07:06:35;16.98;;;12.20;;
36597;SDS011;22607;49.550;11.940;2022-09-09T07:09:06;17.23;;;13.00;;
36597;SDS011;22607;49.550;11.940;2022-09-09T07:11:42;16.98;;;12.30;;
36597;SDS011;22607;49.550;11.940;2022-09-09T07:14:10;16.83;;;11.43;;
36597;SDS011;22607;49.550;11.940;2022-09-09T07:16:40;18.67;;;13.18;;
36597;SDS011;22607;49.550;11.940;2022-09-09T07:19:08;16.20;;;11.52;;
36597;SDS011;22607;49.550;11.940;2022-09-09T07:21:35;16.38;;;10.40;;
36597;SDS011;22607;49.550;11.940;2022-09-09T07:24:02;16.95;;;12.70;;
36597;SDS011;22607;49.550;11.940;2022-09-09T07:26:29;15.93;;;11.55;;
36597;SDS011;22607;49.550;11.940;2022-09-09T07:28:57;15.30;;;11.43;;
36597;SDS011;22607;49.550;11.940;2022-09-09T07:31:28;15.57;;;11.85;;
36597;SDS011;22607;49.550;11.940;2022-09-09T07:33:57;16.10;;;12.60;;
36597;SDS011;22607;49.550;11.940;2022-09-09T07:38:59;15.93;;;11.98;;
36597;SDS011;22607;49.550;11.940;2022-09-09T07:41:29;16.70;;;11.25;;
36597;SDS011;22607;49.550;11.940;2022-09-09T07:44:03;14.00;;;10.13;;
36597;SDS011;22607;49.550;11.940;2022-09-09T07:46:35;15.85;;;12.40;;
36597;SDS011;22607;49.550;11.940;2022-09-09T07:49:02;13.73;;;9.10;;
36597;SDS011;22607;49.550;11.940;2022-09-09T07:51:31;17.67;;;13.35;;
36597;SDS011;22607;49.550;11.940;2022-09-09T07:54:00;16.83;;;12.88;;
36597;SDS011;22607;49.550;11.940;2022-09-09T07:56:31;15.80;;;11.40;;
36597;SDS011;22607;49.550;11.940;2022-09-09T07:58:58;13.95;;;10.00;;
36597;SDS011;22607;49.550;11.940;2022-09-09T08:04:00;18.65;;;13.25;;
36597;SDS011;22607;49.550;11.940;2022-09-09T08:06:30;18.70;;;14.88;;
36597;SDS011;22607;49.550;11.940;2022-09-09T08:09:02;20.95;;;13.63;;
36597;SDS011;22607;49.550;11.940;2022-09-09T08:11:30;17.10;;;13.30;;
36597;SDS011;22607;49.550;11.940;2022-09-09T08:14:03;15.85;;;11.45;;
36597;SDS011;22607;49.550;11.940;2022-09-09T08:16:32;15.18;;;10.55;;
36597;SDS011;22607;49.550;11.940;2022-09-09T08:19:02;15.20;;;10.85;;
36597;SDS011;22607;49.550;11.940;2022-09-09T08:21:30;15.18;;;11.10;;
36597;SDS011;22607;49.550;11.940;2022-09-09T08:24:00;14.75;;;9.80;;
36597;SDS011;22607;49.550;11.940;2022-09-09T08:26:28;15.23;;;10.93;;
36597;SDS011;22607;49.550;11.940;2022-09-09T08:28:58;14.55;;;10.82;;
36597;SDS011;22607;49.550;11.940;2022-09-09T08:31:29;15.48;;;9.25;;
36597;SDS011;22607;49.550;11.940;2022-09-09T08:34:03;10.32;;;6.18;;
36597;SDS011;22607;49.550;11.940;2022-09-09T08:36:33;12.27;;;6.45;;
36597;SDS011;22607;49.550;11.940;2022-09-09T08:39:03;14.63;;;9.88;;
36597;SDS011;22607;49.550;11.940;2022-09-09T08:46:38;16.00;;;11.23;;
36597;SDS011;22607;49.550;11.940;2022-09-09T08:49:19;12.27;;;8.15;;
36597;SDS011;22607;49.550;11.940;2022-09-09T08:51:49;15.10;;;9.48;;
36597;SDS011;22607;49.550;11.940;2022-09-09T08:54:17;13.77;;;8.90;;
36597;SDS011;22607;49.550;11.940;2022-09-09T08:57:04;11.85;;;8.25;;
36597;SDS011;22607;49.550;11.940;2022-09-09T08:59:40;12.75;;;9.40;;
36597;SDS011;22607;49.550;11.940;2022-09-09T09:02:25;17.23;;;10.27;;
36597;SDS011;22607;49.550;11.940;2022-09-09T09:07:59;12.18;;;8.25;;
36597;SDS011;22607;49.550;11.940;2022-09-09T09:10:45;11.98;;;8.80;;
36597;SDS011;22607;49.550;11.940;2022-09-09T09:15:42;15.20;;;8.52;;
36597;SDS011;22607;49.550;11.940;2022-09-09T09:18:13;11.33;;;6.63;;
36597;SDS011;22607;49.550;11.940;2022-09-09T09:20:49;12.85;;;8.20;;
36597;SDS011;22607;49.550;11.940;2022-09-09T09:23:24;11.32;;;7.68;;
36597;SDS011;22607;49.550;11.940;2022-09-09T09:25:55;13.10;;;7.57;;
36597;SDS011;22607;49.550;11.940;2022-09-09T09:28:29;11.38;;;7.38;;
36597;SDS011;22607;49.550;11.940;2022-09-09T09:31:11;11.85;;;7.38;;
36597;SDS011;22607;49.550;11.940;2022-09-09T09:36:20;10.40;;;6.22;;
36597;SDS011;22607;49.550;11.940;2022-09-09T09:41:40;10.85;;;6.07;;
36597;SDS011;22607;49.550;11.940;2022-09-09T09:47:11;10.13;;;5.85;;
36597;SDS011;22607;49.550;11.940;2022-09-09T09:49:55;11.05;;;6.35;;
36597;SDS011;22607;49.550;11.940;2022-09-09T09:52:25;11.32;;;5.38;;
36597;SDS011;22607;49.550;11.940;2022-09-09T09:54:55;10.48;;;5.95;;
36597;SDS011;22607;49.550;11.940;2022-09-09T09:57:27;8.82;;;5.03;;
36597;SDS011;22607;49.550;11.940;2022-09-09T10:00:15;10.48;;;5.75;;
36597;SDS011;22607;49.550;11.940;2022-09-09T10:02:45;8.32;;;4.28;;
36597;SDS011;22607;49.550;11.940;2022-09-09T10:05:20;8.43;;;4.38;;
36597;SDS011;22607;49.550;11.940;2022-09-09T10:10:56;8.52;;;3.58;;
36597;SDS011;22607;49.550;11.940;2022-09-09T10:13:39;6.97;;;3.15;;
36597;SDS011;22607;49.550;11.940;2022-09-09T10:16:12;6.88;;;2.33;;
36597;SDS011;22607;49.550;11.940;2022-09-09T10:18:58;7.35;;;2.42;;
36597;SDS011;22607;49.550;11.940;2022-09-09T10:30:13;7.75;;;2.35;;
36597;SDS011;22607;49.550;11.940;2022-09-09T10:35:33;5.50;;;1.77;;
36597;SDS011;22607;49.550;11.940;2022-09-09T10:41:33;6.17;;;2.07;;
36597;SDS011;22607;49.550;11.940;2022-09-09T10:49:36;5.45;;;1.27;;
36597;SDS011;22607;49.550;11.940;2022-09-09T10:54:56;5.07;;;1.25;;
36597;SDS011;22607;49.550;11.940;2022-09-09T11:00:22;4.50;;;1.40;;
36597;SDS011;22607;49.550;11.940;2022-09-09T11:02:52;3.17;;;1.00;;
36597;SDS011;22607;49.550;11.940;2022-09-09T11:07:56;4.70;;;1.20;;
36597;SDS011;22607;49.550;11.940;2022-09-09T11:10:38;4.72;;;1.20;;
36597;SDS011;22607;49.550;11.940;2022-09-09T11:13:11;5.70;;;1.33;;
36597;SDS011;22607;49.550;11.940;2022-09-09T11:19:11;5.45;;;1.13;;
36597;SDS011;22607;49.550;11.940;2022-09-09T11:21:44;4.60;;;1.20;;
36597;SDS011;22607;49.550;11.940;2022-09-09T11:24:21;3.92;;;1.02;;
36597;SDS011;22607;49.550;11.940;2022-09-09T11:26:58;3.60;;;1.15;;
36597;SDS011;22607;49.550;11.940;2022-09-09T11:35:55;5.22;;;1.30;;
36597;SDS011;22607;49.550;11.940;2022-09-09T11:41:05;5.63;;;1.13;;
36597;SDS011;22607;49.550;11.940;2022-09-09T11:43:43;5.07;;;0.90;;
36597;SDS011;22607;49.550;11.940;2022-09-09T11:46:12;3.83;;;0.90;;
36597;SDS011;22607;49.550;11.940;2022-09-09T11:48:42;4.65;;;0.93;;
36597;SDS011;22607;49.550;11.940;2022-09-09T11:51:13;4.85;;;1.02;;
36597;SDS011;22607;49.550;11.940;2022-09-09T11:53:54;5.90;;;1.00;;
36597;SDS011;22607;49.550;11.940;2022-09-09T11:56:26;4.20;;;1.00;;
36597;SDS011;22607;49.550;11.940;2022-09-09T12:01:49;5.32;;;1.00;;
36597;SDS011;22607;49.550;11.940;2022-09-09T12:04:27;6.20;;;1.00;;
36597;SDS011;22607;49.550;11.940;2022-09-09T12:09:50;4.15;;;1.23;;
36597;SDS011;22607;49.550;11.940;2022-09-09T12:12:37;3.15;;;0.90;;
36597;SDS011;22607;49.550;11.940;2022-09-09T12:17:41;3.80;;;0.98;;
36597;SDS011;22607;49.550;11.940;2022-09-09T12:28:20;4.05;;;0.80;;
36597;SDS011;22607;49.550;11.940;2022-09-09T12:31:04;4.10;;;1.00;;
36597;SDS011;22607;49.550;11.940;2022-09-09T12:33:37;3.83;;;1.00;;
36597;SDS011;22607;49.550;11.940;2022-09-09T12:36:11;7.22;;;0.90;;
36597;SDS011;22607;49.550;11.940;2022-09-09T12:38:41;5.13;;;1.05;;
36597;SDS011;22607;49.550;11.940;2022-09-09T12:41:21;5.43;;;0.82;;
36597;SDS011;22607;49.550;11.940;2022-09-09T12:43:49;2.63;;;0.90;;
36597;SDS011;22607;49.550;11.940;2022-09-09T12:46:21;3.38;;;0.70;;
36597;SDS011;22607;49.550;11.940;2022-09-09T12:49:00;3.47;;;0.75;;
36597;SDS011;22607;49.550;11.940;2022-09-09T12:51:32;3.08;;;0.63;;
36597;SDS011;22607;49.550;11.940;2022-09-09T12:54:00;3.97;;;0.73;;
36597;SDS011;22607;49.550;11.940;2022-09-09T12:56:29;2.28;;;0.55;;
36597;SDS011;22607;49.550;11.940;2022-09-09T13:01:28;1.73;;;0.60;;
36597;SDS011;22607;49.550;11.940;2022-09-09T13:03:57;3.40;;;0.73;;
36597;SDS011;22607;49.550;11.940;2022-09-09T13:08:55;8.75;;;0.90;;
36597;SDS011;22607;49.550;11.940;2022-09-09T13:11:25;4.40;;;0.70;;
36597;SDS011;22607;49.550;11.940;2022-09-09T13:13:57;2.40;;;0.60;;
36597;SDS011;22607;49.550;11.940;2022-09-09T13:21:41;3.10;;;0.73;;
36597;SDS011;22607;49.550;11.940;2022-09-09T13:27:03;3.13;;;0.50;;
36597;SDS011;22607;49.550;11.940;2022-09-09T13:29:31;3.35;;;0.52;;
36597;SDS011;22607;49.550;11.940;2022-09-09T13:32:05;3.47;;;0.50;;
36597;SDS011;22607;49.550;11.940;2022-09-09T13:34:50;3.50;;;0.50;;
36597;SDS011;22607;49.550;11.940;2022-09-09T13:37:37;2.53;;;0.47;;
36597;SDS011;22607;49.550;11.940;2022-09-09T13:40:16;3.08;;;0.50;;
36597;SDS011;22607;49.550;11.940;2022-09-09T13:42:45;3.65;;;0.50;;
36597;SDS011;22607;49.550;11.940;2022-09-09T13:45:18;2.28;;;0.57;;
36597;SDS011;22607;49.550;11.940;2022-09-09T13:47:47;2.97;;;0.57;;
36597;SDS011;22607;49.550;11.940;2022-09-09T13:52:52;4.18;;;0.60;;
36597;SDS011;22607;49.550;11.940;2022-09-09T13:55:21;6.15;;;0.70;;
36597;SDS011;22607;49.550;11.940;2022-09-09T13:57:59;4.35;;;0.65;;
36597;SDS011;22607;49.550;11.940;2022-09-09T14:00:31;6.18;;;1.02;;
36597;SDS011;22607;49.550;11.940;2022-09-09T14:02:59;6.45;;;0.98;;
36597;SDS011;22607;49.550;11.940;2022-09-09T14:05:29;8.15;;;0.95;;
36597;SDS011;22607;49.550;11.940;2022-09-09T14:07:58;3.83;;;0.80;;
36597;SDS011;22607;49.550;11.940;2022-09-09T14:10:26;4.30;;;0.88;;
36597;SDS011;22607;49.550;11.940;2022-09-09T14:12:53;5.35;;;1.10;;
36597;SDS011;22607;49.550;11.940;2022-09-09T14:15:20;2.50;;;0.60;;
36597;SDS011;22607;49.550;11.940;2022-09-09T14:17:48;8.20;;;1.15;;
36597;SDS011;22607;49.550;11.940;2022-09-09T14:20:14;6.82;;;1.10;;
36597;SDS011;22607;49.550;11.940;2022-09-09T14:22:43;7.47;;;1.30;;
36597;SDS011;22607;49.550;11.940;2022-09-09T14:25:10;7.88;;;1.13;;
36597;SDS011;22607;49.550;11.940;2022-09-09T14:27:39;5.80;;;0.90;;
36597;SDS011;22607;49.550;11.940;2022-09-09T14:30:06;6.90;;;1.00;;
36597;SDS011;22607;49.550;11.940;2022-09-09T14:32:33;5.10;;;0.80;;
36597;SDS011;22607;49.550;11.940;2022-09-09T14:35:00;8.75;;;1.48;;
36597;SDS011;22607;49.550;11.940;2022-09-09T14:37:27;6.75;;;1.60;;
36597;SDS011;22607;49.550;11.940;2022-09-09T14:39:54;8.15;;;1.17;;
36597;SDS011;22607;49.550;11.940;2022-09-09T14:42:21;6.78;;;1.00;;
36597;SDS011;22607;49.550;11.940;2022-09-09T14:44:48;6.38;;;1.00;;
36597;SDS011;22607;49.550;11.940;2022-09-09T14:47:15;5.30;;;0.98;;
36597;SDS011;22607;49.550;11.940;2022-09-09T14:49:41;7.03;;;1.10;;
36597;SDS011;22607;49.550;11.940;2022-09-09T14:52:12;5.53;;;0.90;;
36597;SDS011;22607;49.550;11.940;2022-09-09T14:54:39;6.35;;;1.23;;
36597;SDS011;22607;49.550;11.940;2022-09-09T14:57:06;6.30;;;1.20;;
36597;SDS011;22607;49.550;11.940;2022-09-09T14:59:33;7.32;;;0.95;;
36597;SDS011;22607;49.550;11.940;2022-09-09T15:02:00;5.22;;;1.20;;
36597;SDS011;22607;49.550;11.940;2022-09-09T15:04:30;5.57;;;0.85;;
36597;SDS011;22607;49.550;11.940;2022-09-09T15:06:57;5.38;;;1.27;;
36597;SDS011;22607;49.550;11.940;2022-09-09T15:09:24;5.78;;;1.02;;
36597;SDS011;22607;49.550;11.940;2022-09-09T15:11:51;6.32;;;0.95;;
36597;SDS011;22607;49.550;11.940;2022-09-09T15:14:18;7.63;;;1.17;;
36597;SDS011;22607;49.550;11.940;2022-09-09T15:16:50;9.07;;;1.45;;
36597;SDS011;22607;49.550;11.940;2022-09-09T15:19:17;6.63;;;1.25;;
36597;SDS011;22607;49.550;11.940;2022-09-09T15:21:43;7.00;;;1.30;;
36597;SDS011;22607;49.550;11.940;2022-09-09T15:24:10;5.57;;;1.38;;
36597;SDS011;22607;49.550;11.940;2022-09-09T15:26:37;6.38;;;1.20;;
36597;SDS011;22607;49.550;11.940;2022-09-09T15:29:07;6.20;;;1.67;;
36597;SDS011;22607;49.550;11.940;2022-09-09T15:31:34;9.50;;;3.10;;
36597;SDS011;22607;49.550;11.940;2022-09-09T15:34:03;8.70;;;2.42;;
36597;SDS011;22607;49.550;11.940;2022-09-09T15:36:33;7.28;;;1.30;;
36597;SDS011;22607;49.550;11.940;2022-09-09T15:39:02;6.10;;;1.23;;
36597;SDS011;22607;49.550;11.940;2022-09-09T15:41:30;6.22;;;1.10;;
36597;SDS011;22607;49.550;11.940;2022-09-09T15:44:00;6.95;;;1.75;;
36597;SDS011;22607;49.550;11.940;2022-09-09T15:46:36;28.27;;;25.35;;
36597;SDS011;22607;49.550;11.940;2022-09-09T15:51:40;6.20;;;1.52;;
36597;SDS011;22607;49.550;11.940;2022-09-09T15:54:14;3.60;;;1.27;;
36597;SDS011;22607;49.550;11.940;2022-09-09T15:56:47;5.25;;;1.40;;
36597;SDS011;22607;49.550;11.940;2022-09-09T15:59:22;7.95;;;1.50;;
36597;SDS011;22607;49.550;11.940;2022-09-09T16:01:51;7.50;;;1.98;;
36597;SDS011;22607;49.550;11.940;2022-09-09T16:04:18;13.25;;;2.20;;
36597;SDS011;22607;49.550;11.940;2022-09-09T16:06:52;7.22;;;2.00;;
36597;SDS011;22607;49.550;11.940;2022-09-09T16:09:20;5.50;;;1.30;;
36597;SDS011;22607;49.550;11.940;2022-09-09T16:11:47;5.80;;;1.20;;
36597;SDS011;22607;49.550;11.940;2022-09-09T16:14:14;4.78;;;1.25;;
36597;SDS011;22607;49.550;11.940;2022-09-09T16:16:44;5.40;;;1.20;;
36597;SDS011;22607;49.550;11.940;2022-09-09T16:19:11;7.55;;;1.75;;
36597;SDS011;22607;49.550;11.940;2022-09-09T16:21:43;5.65;;;1.60;;
36597;SDS011;22607;49.550;11.940;2022-09-09T16:24:12;5.25;;;1.50;;
36597;SDS011;22607;49.550;11.940;2022-09-09T16:26:45;5.38;;;1.50;;
36597;SDS011;22607;49.550;11.940;2022-09-09T16:29:13;4.63;;;1.10;;
36597;SDS011;22607;49.550;11.940;2022-09-09T16:31:41;5.95;;;1.67;;
36597;SDS011;22607;49.550;11.940;2022-09-09T16:34:08;6.28;;;1.70;;
36597;SDS011;22607;49.550;11.940;2022-09-09T16:36:36;5.57;;;1.35;;
36597;SDS011;22607;49.550;11.940;2022-09-09T16:39:07;7.20;;;1.20;;
36597;SDS011;22607;49.550;11.940;2022-09-09T16:41:42;4.28;;;1.10;;
36597;SDS011;22607;49.550;11.940;2022-09-09T16:44:13;5.50;;;1.27;;
36597;SDS011;22607;49.550;11.940;2022-09-09T16:46:42;6.03;;;1.20;;
36597;SDS011;22607;49.550;11.940;2022-09-09T16:49:11;4.82;;;1.15;;
36597;SDS011;22607;49.550;11.940;2022-09-09T16:51:41;4.55;;;1.10;;
36597;SDS011;22607;49.550;11.940;2022-09-09T16:54:15;5.28;;;1.13;;
36597;SDS011;22607;49.550;11.940;2022-09-09T16:56:44;7.70;;;1.35;;
36597;SDS011;22607;49.550;11.940;2022-09-09T16:59:16;7.75;;;1.48;;
36597;SDS011;22607;49.550;11.940;2022-09-09T17:01:45;5.55;;;1.10;;
36597;SDS011;22607;49.550;11.940;2022-09-09T17:04:15;4.78;;;1.00;;
36597;SDS011;22607;49.550;11.940;2022-09-09T17:06:47;10.50;;;5.47;;
36597;SDS011;22607;49.550;11.940;2022-09-09T17:09:18;4.63;;;1.23;;
36597;SDS011;22607;49.550;11.940;2022-09-09T17:11:53;4.30;;;0.95;;
36597;SDS011;22607;49.550;11.940;2022-09-09T17:14:21;3.63;;;0.98;;
36597;SDS011;22607;49.550;11.940;2022-09-09T17:16:48;3.90;;;1.08;;
36597;SDS011;22607;49.550;11.940;2022-09-09T17:19:15;3.28;;;0.85;;
36597;SDS011;22607;49.550;11.940;2022-09-09T17:21:43;5.05;;;0.90;;
36597;SDS011;22607;49.550;11.940;2022-09-09T17:24:29;3.65;;;1.10;;
36597;SDS011;22607;49.550;11.940;2022-09-09T17:26:56;7.43;;;1.55;;